createdAt,value
2019-02-05T00:04:06.586Z,40.90
2019-02-05T00:09:13.350Z,40.00
2019-02-05T00:14:19.434Z,42.53
2019-02-05T00:19:25.409Z,39.80
2019-02-05T00:24:31.437Z,44.33
2019-02-05T00:29:37.844Z,42.23
2019-02-05T00:34:44.234Z,45.10
2019-02-05T00:39:50.272Z,46.63
2019-02-05T00:44:56.332Z,47.37
2019-02-05T00:50:02.334Z,49.20
2019-02-05T00:55:10.285Z,46.40
2019-02-05T01:00:22.307Z,47.93
2019-02-05T01:05:28.453Z,47.07
2019-02-05T01:10:34.513Z,46.77
2019-02-05T01:15:40.621Z,43.83
2019-02-05T01:20:46.645Z,44.40
2019-02-05T01:25:52.772Z,50.43
2019-02-05T01:30:58.857Z,48.20
2019-02-05T01:36:05.370Z,49.90
2019-02-05T01:41:12.548Z,47.60
2019-02-05T01:46:18.596Z,50.57
2019-02-05T01:51:24.641Z,50.70
2019-02-05T01:56:40.413Z,51.57
2019-02-05T02:01:38.426Z,51.83
2019-02-05T02:06:44.528Z,55.13
2019-02-05T02:11:51.040Z,56.40
2019-02-05T02:16:57.033Z,50.27
2019-02-05T02:22:03.086Z,49.57
2019-02-05T02:27:09.254Z,50.43
2019-02-05T02:32:15.294Z,53.47
2019-02-05T02:37:21.406Z,47.63
2019-02-05T02:42:27.534Z,53.23
2019-02-05T02:47:33.573Z,53.70
2019-02-05T02:52:39.633Z,53.37
2019-02-05T02:57:46.223Z,53.40
2019-02-05T03:02:52.362Z,55.67
2019-02-05T03:07:58.721Z,56.20
2019-02-05T03:13:04.760Z,60.07
2019-02-05T03:18:10.881Z,55.23
2019-02-05T03:23:17.007Z,58.20
2019-02-05T03:28:22.978Z,55.77
2019-02-05T03:33:30.362Z,56.10
2019-02-05T03:38:37.556Z,57.83
2019-02-05T03:43:43.607Z,62.40
2019-02-05T03:48:50.855Z,64.10
2019-02-05T03:54:05.440Z,58.20
2019-02-05T03:59:26.359Z,58.93
2019-02-05T04:05:02.037Z,59.00
2019-02-05T04:11:01.748Z,63.90
2019-02-05T04:16:33.519Z,65.13
2019-02-05T04:22:26.972Z,67.03
2019-02-05T04:28:00.873Z,64.10
2019-02-05T04:33:29.426Z,63.03
2019-02-05T04:39:24.012Z,66.53
2019-02-05T04:45:34.174Z,65.40
2019-02-05T04:51:12.305Z,62.37
2019-02-05T04:56:36.684Z,71.37
2019-02-05T05:02:00.172Z,71.20
2019-02-05T05:07:46.150Z,76.90
2019-02-05T05:12:52.272Z,82.80
2019-02-05T05:17:58.475Z,76.30
2019-02-05T05:23:05.183Z,76.43
2019-02-05T05:28:11.203Z,77.90
2019-02-05T05:33:17.346Z,82.63
2019-02-05T05:38:24.145Z,85.40
2019-02-05T05:43:30.230Z,86.70
2019-02-05T05:48:36.342Z,90.33
2019-02-05T05:53:42.461Z,89.23
2019-02-05T05:58:48.453Z,82.60
2019-02-05T06:03:54.527Z,86.53
2019-02-05T06:09:00.537Z,92.50
2019-02-05T06:14:08.029Z,91.67
2019-02-05T06:19:14.130Z,88.90
2019-02-05T06:24:20.637Z,88.17
2019-02-05T06:29:26.716Z,85.83
2019-02-05T06:34:32.730Z,95.13
2019-02-05T06:39:38.926Z,91.27
2019-02-05T06:44:45.028Z,96.97
2019-02-05T06:49:51.049Z,91.50
2019-02-05T06:54:57.133Z,89.20
2019-02-05T07:00:03.431Z,93.87
2019-02-05T07:05:10.505Z,90.10
2019-02-05T07:10:18.619Z,88.37
2019-02-05T07:15:24.795Z,86.43
2019-02-05T07:20:31.307Z,85.70
2019-02-05T07:25:37.477Z,90.23
2019-02-05T07:30:43.577Z,82.07
2019-02-05T07:35:49.647Z,86.57
2019-02-05T07:40:55.833Z,94.47
2019-02-05T07:46:02.017Z,87.90
2019-02-05T07:51:08.471Z,86.60
2019-02-05T07:56:14.604Z,88.73
2019-02-05T08:01:20.771Z,91.23
2019-02-05T08:06:26.966Z,85.03
2019-02-05T08:11:33.173Z,87.03
2019-02-05T08:16:39.530Z,87.53
2019-02-05T08:21:46.462Z,90.87
2019-02-05T08:26:52.589Z,93.43
2019-02-05T08:31:58.751Z,87.20
2019-02-05T08:37:04.874Z,76.33
2019-02-05T08:42:11.583Z,92.73
2019-02-05T08:47:17.690Z,97.77
2019-02-05T08:52:23.713Z,97.03
2019-02-05T08:57:29.848Z,93.27
2019-02-05T09:02:36.083Z,92.97
2019-02-05T09:07:42.523Z,102.07
2019-02-05T09:12:48.649Z,102.00
2019-02-05T09:17:55.639Z,102.13
2019-02-05T09:23:01.779Z,97.53
2019-02-05T09:28:08.016Z,106.07
2019-02-05T09:33:14.501Z,97.37
2019-02-05T09:38:20.763Z,99.40
2019-02-05T09:43:26.963Z,97.80
2019-02-05T09:48:33.115Z,97.07
2019-02-05T09:53:39.170Z,92.60
2019-02-05T09:58:45.298Z,92.70
2019-02-05T10:03:51.475Z,86.67
2019-02-05T10:08:57.979Z,83.83
2019-02-05T10:14:04.249Z,83.47
2019-02-05T10:19:10.354Z,83.30
2019-02-05T10:24:16.694Z,88.83
2019-02-05T10:29:22.907Z,94.87
2019-02-05T10:34:34.242Z,83.13
2019-02-05T10:39:37.444Z,71.13
2019-02-05T10:44:43.505Z,69.97
2019-02-05T10:49:49.719Z,67.40
2019-02-05T10:54:55.847Z,67.77
2019-02-05T11:00:08.971Z,71.73
2019-02-05T11:05:11.081Z,64.73
2019-02-05T11:10:17.396Z,76.63
2019-02-05T11:15:25.761Z,73.73
2019-02-05T11:20:31.874Z,71.83
2019-02-05T11:25:38.357Z,77.87
2019-02-05T11:30:45.629Z,80.03
2019-02-05T11:35:52.179Z,73.73
2019-02-05T11:40:58.316Z,78.90
2019-02-05T11:46:04.463Z,76.77
2019-02-05T11:51:10.599Z,81.50
2019-02-05T11:56:17.154Z,72.07
2019-02-05T12:01:38.119Z,66.43
2019-02-05T12:06:35.602Z,64.83
2019-02-05T12:11:42.076Z,66.00
2019-02-05T12:16:49.158Z,58.60
2019-02-05T12:21:55.293Z,53.73
2019-02-05T12:27:01.439Z,55.83
2019-02-05T12:32:07.618Z,57.10
2019-02-05T12:37:14.071Z,55.10
2019-02-05T12:42:20.238Z,58.20
2019-02-05T12:47:26.395Z,60.07
2019-02-05T12:52:32.448Z,59.53
2019-02-05T12:57:38.542Z,59.23
2019-02-05T13:02:44.754Z,58.67
2019-02-05T13:07:50.898Z,60.50
2019-02-05T13:12:57.604Z,64.33
2019-02-05T13:18:03.820Z,62.07
2019-02-05T13:23:10.386Z,64.37
2019-02-05T13:28:16.794Z,67.13
2019-02-05T13:33:23.369Z,67.27
2019-02-05T13:38:29.532Z,65.20
2019-02-05T13:43:35.748Z,69.73
2019-02-05T13:48:41.898Z,69.97
2019-02-05T13:53:48.046Z,68.67
2019-02-05T13:58:54.270Z,70.97
2019-02-05T14:04:00.425Z,69.20
2019-02-05T14:09:11.898Z,59.57
2019-02-05T14:14:18.158Z,59.10
2019-02-05T14:19:24.417Z,54.83
2019-02-05T14:24:30.587Z,50.13
2019-02-05T14:29:36.714Z,49.10
2019-02-05T14:34:42.846Z,48.87
2019-02-05T14:39:49.566Z,52.87
2019-02-05T14:44:56.079Z,51.67
2019-02-05T14:50:02.237Z,50.10
2019-02-05T14:55:08.473Z,55.70
2019-02-05T15:00:18.628Z,56.13
2019-02-05T15:05:24.884Z,55.40
2019-02-05T15:10:32.112Z,54.53
2019-02-05T15:15:38.365Z,57.27
2019-02-05T15:20:46.271Z,58.63
2019-02-05T15:25:52.511Z,55.73
2019-02-05T15:30:58.677Z,59.13
2019-02-05T15:36:14.256Z,53.17
2019-02-05T15:41:20.486Z,51.60
2019-02-05T15:46:26.726Z,57.07
2019-02-05T15:51:32.790Z,58.13
2019-02-05T15:56:39.099Z,57.97
2019-02-05T16:01:45.675Z,55.30
2019-02-05T16:06:51.859Z,55.03
2019-02-05T16:11:58.122Z,56.17
2019-02-05T16:17:04.354Z,59.77
2019-02-05T16:22:10.514Z,61.40
2019-02-05T16:27:16.660Z,58.77
2019-02-05T16:32:22.747Z,63.10
2019-02-05T16:37:29.032Z,58.60
2019-02-05T16:42:35.179Z,59.93
2019-02-05T16:47:41.319Z,57.77
2019-02-05T16:52:47.486Z,58.03
2019-02-05T16:57:53.775Z,51.50
2019-02-05T17:02:59.949Z,49.13
2019-02-05T17:08:06.322Z,48.73
2019-02-05T17:13:12.498Z,47.73
2019-02-05T17:18:23.630Z,48.87
2019-02-05T17:23:26.551Z,47.77
2019-02-05T17:28:32.681Z,48.33
2019-02-05T17:33:40.323Z,47.27
2019-02-05T17:38:46.442Z,49.80
2019-02-05T17:43:52.727Z,45.23
2019-02-05T17:48:58.895Z,43.50
2019-02-05T17:54:05.879Z,40.97
2019-02-05T17:59:12.103Z,41.60
2019-02-05T18:04:18.258Z,37.97
2019-02-05T18:09:26.564Z,38.57
2019-02-05T18:14:32.678Z,34.37
2019-02-05T18:19:38.782Z,38.30
2019-02-05T18:24:45.044Z,35.57
2019-02-05T18:29:51.180Z,34.77
2019-02-05T18:34:58.283Z,35.10
2019-02-05T18:40:05.310Z,32.80
2019-02-05T18:45:13.170Z,34.33
2019-02-05T18:50:22.346Z,33.80
2019-02-05T18:55:29.398Z,34.23
2019-02-05T19:00:38.797Z,33.07
2019-02-05T19:05:45.210Z,32.13
2019-02-05T19:10:51.385Z,29.07
2019-02-05T19:15:57.567Z,31.03
2019-02-05T19:21:04.173Z,31.20
2019-02-05T19:26:35.772Z,31.73
2019-02-05T19:31:44.625Z,30.27
2019-02-05T19:36:51.598Z,29.37
2019-02-05T19:41:57.746Z,28.43
2019-02-05T19:47:06.895Z,26.40
2019-02-05T19:52:13.103Z,28.47
2019-02-05T19:57:19.269Z,24.73
2019-02-05T20:02:25.642Z,25.33
2019-02-05T20:07:31.901Z,26.23
2019-02-05T20:12:38.101Z,24.67
2019-02-05T20:17:44.263Z,27.67
2019-02-05T20:22:50.442Z,23.13
2019-02-05T20:27:56.650Z,22.27
2019-02-05T20:33:03.331Z,21.63
2019-02-05T20:38:09.935Z,21.50
2019-02-05T20:43:16.159Z,21.77
2019-02-05T20:48:22.286Z,21.60
2019-02-05T20:53:29.901Z,19.47
2019-02-05T20:58:36.066Z,20.17
2019-02-05T21:03:43.155Z,19.67
2019-02-05T21:08:49.316Z,20.77
2019-02-05T21:13:55.586Z,19.00
2019-02-05T21:19:01.633Z,20.87
2019-02-05T21:24:07.827Z,17.47
2019-02-05T21:29:14.011Z,20.40
2019-02-05T21:34:20.156Z,17.40
2019-02-05T21:39:26.608Z,18.13
2019-02-05T21:44:32.686Z,17.87
2019-02-05T21:49:38.766Z,19.07
2019-02-05T21:54:44.943Z,18.73
2019-02-05T21:59:51.031Z,18.87
2019-02-05T22:04:57.158Z,18.57
2019-02-05T22:10:03.343Z,16.20
2019-02-05T22:15:14.400Z,16.17
2019-02-05T22:20:22.473Z,17.00
2019-02-05T22:25:28.890Z,14.43
2019-02-05T22:30:35.155Z,13.43
2019-02-05T22:35:41.603Z,15.27
2019-02-05T22:40:47.980Z,13.77
2019-02-05T22:45:54.364Z,14.50
2019-02-05T22:51:00.834Z,16.17
2019-02-05T22:56:07.251Z,15.63
2019-02-05T23:01:37.840Z,13.40
2019-02-05T23:07:10.191Z,12.23
2019-02-05T23:12:32.892Z,13.03
2019-02-05T23:17:39.423Z,15.00
2019-02-05T23:22:45.650Z,14.23
2019-02-05T23:27:52.052Z,14.77
2019-02-05T23:32:58.921Z,14.50
2019-02-05T23:38:05.898Z,14.20
2019-02-05T23:43:11.927Z,13.57
2019-02-05T23:48:17.904Z,12.30
2019-02-05T23:53:24.125Z,12.17
2019-02-05T23:58:30.227Z,13.00
